Time;durP1;ratioP1;P1;durP2;ratioP2;P2;SDS_P1;SDS_P2;PMS_P1;PMS_P2;Temp;Humidity;BMP_temperature;BMP_pressure;BME280_temperature;BME280_humidity;BME280_pressure;Samples;Min_cycle;Max_cycle;Signal;HPM_P1;HPM_P2
2021/05/18 00:00:25;;;;;;;1.67;0.70;;;10.00;99.90;;;;;;5072659;28;20036;-71
2021/05/18 00:02:51;;;;;;;1.65;0.43;;;10.00;99.90;;;;;;5072943;28;20468;-71
2021/05/18 00:05:19;;;;;;;1.75;0.50;;;9.90;99.90;;;;;;5054897;28;20048;-71
2021/05/18 00:07:53;;;;;;;2.70;0.52;;;9.80;99.90;;;;;;5072633;28;20112;-71
2021/05/18 00:13:05;;;;;;;1.45;0.63;;;9.80;99.90;;;;;;5054813;28;20029;-71
2021/05/18 00:15:31;;;;;;;2.00;0.70;;;9.80;99.90;;;;;;5054808;28;20020;-71
2021/05/18 00:17:56;;;;;;;1.67;0.70;;;9.80;99.90;;;;;;5072830;28;20066;-70
2021/05/18 00:20:22;;;;;;;0.55;0.50;;;9.80;99.90;;;;;;5072668;28;20032;-71
2021/05/18 00:22:48;;;;;;;7.85;0.70;;;9.80;99.90;;;;;;5038119;28;20537;-71
2021/05/18 00:25:15;;;;;;;1.38;0.60;;;9.70;99.90;;;;;;5054616;28;20020;-71
2021/05/18 00:27:41;;;;;;;0.60;0.60;;;9.70;99.90;;;;;;5072300;28;20024;-70
2021/05/18 00:30:09;;;;;;;0.85;0.70;;;9.80;99.90;;;;;;5054585;28;20025;-71
2021/05/18 00:32:35;;;;;;;2.33;0.60;;;9.80;99.90;;;;;;5054389;28;20028;-71
2021/05/18 00:35:03;;;;;;;3.50;0.60;;;9.80;99.90;;;;;;5072389;28;20021;-71
2021/05/18 00:37:29;;;;;;;2.95;0.82;;;9.80;99.90;;;;;;5054299;28;20024;-72
2021/05/18 00:39:55;;;;;;;2.10;0.70;;;9.70;99.90;;;;;;5054263;28;20048;-70
2021/05/18 00:42:23;;;;;;;0.60;0.60;;;9.70;99.90;;;;;;5072311;28;20017;-71
2021/05/18 00:44:51;;;;;;;2.47;0.77;;;9.60;99.90;;;;;;5072456;28;20091;-70
2021/05/18 00:47:17;;;;;;;1.30;0.52;;;9.70;99.90;;;;;;5054315;28;20048;-70
2021/05/18 00:49:42;;;;;;;0.60;0.60;;;9.60;99.90;;;;;;5072219;28;20064;-71
2021/05/18 00:52:09;;;;;;;1.00;0.80;;;9.60;99.90;;;;;;5054184;28;20111;-71
2021/05/18 00:54:57;;;;;;;0.30;0.30;;;9.60;99.90;;;;;;5054218;28;20024;-71
2021/05/18 01:00:08;;;;;;;0.63;0.50;;;9.60;99.90;;;;;;5071888;28;20039;-71
2021/05/18 01:02:34;;;;;;;0.63;0.45;;;9.60;99.90;;;;;;5072055;28;20518;-71
2021/05/18 01:05:20;;;;;;;1.92;0.45;;;9.50;99.90;;;;;;5072020;28;20122;-71
2021/05/18 01:07:47;;;;;;;2.63;0.40;;;9.50;99.90;;;;;;5071847;28;20043;-71
2021/05/18 01:10:14;;;;;;;1.35;0.40;;;9.50;99.90;;;;;;5071141;28;20021;-71
2021/05/18 01:12:40;;;;;;;0.45;0.45;;;9.60;99.90;;;;;;5071818;28;20464;-71
2021/05/18 01:15:08;;;;;;;2.05;0.40;;;9.60;99.90;;;;;;5071833;28;20035;-71
2021/05/18 01:17:33;;;;;;;0.55;0.40;;;9.70;99.90;;;;;;5053893;28;20025;-71
2021/05/18 01:20:12;;;;;;;0.40;0.40;;;9.70;99.90;;;;;;5053765;28;20187;-71
2021/05/18 01:22:44;;;;;;;1.25;0.30;;;9.60;99.90;;;;;;5053833;28;20211;-71
2021/05/18 01:25:11;;;;;;;9.80;0.70;;;9.60;99.90;;;;;;5071773;28;20016;-71
2021/05/18 01:27:38;;;;;;;0.43;0.43;;;9.60;99.90;;;;;;5053598;28;20123;-71
2021/05/18 01:30:06;;;;;;;0.30;0.30;;;9.70;99.90;;;;;;5071762;28;20024;-71
2021/05/18 01:32:32;;;;;;;0.70;0.55;;;9.60;99.90;;;;;;5071719;28;20021;-71
2021/05/18 01:34:58;;;;;;;0.30;0.30;;;9.70;99.90;;;;;;5071754;28;20527;-71
2021/05/18 01:37:24;;;;;;;0.82;0.40;;;9.50;99.90;;;;;;5071596;28;20021;-71
2021/05/18 01:45:11;;;;;;;0.85;0.40;;;9.50;99.90;;;;;;5071547;28;20028;-71
2021/05/18 01:47:39;;;;;;;0.30;0.30;;;9.60;99.90;;;;;;5071439;28;20507;-71
2021/05/18 01:50:05;;;;;;;0.47;0.45;;;9.60;99.90;;;;;;5071558;28;20070;-71
2021/05/18 01:52:32;;;;;;;2.65;0.57;;;9.50;99.90;;;;;;5053461;28;20120;-70
2021/05/18 01:54:58;;;;;;;0.30;0.30;;;9.40;99.90;;;;;;5071534;28;20029;-71
2021/05/18 01:57:26;;;;;;;0.40;0.40;;;9.40;99.90;;;;;;5036846;28;20079;-71
2021/05/18 01:59:52;;;;;;;4.57;0.40;;;9.40;99.90;;;;;;5071175;28;20036;-71
2021/05/18 02:02:18;;;;;;;0.30;0.30;;;9.50;99.90;;;;;;5071355;28;20380;-70
2021/05/18 02:04:54;;;;;;;1.85;0.65;;;9.40;99.90;;;;;;5053421;28;20158;-70
2021/05/18 02:07:26;;;;;;;0.30;0.30;;;9.40;99.90;;;;;;5071678;28;20013;-71
2021/05/18 02:09:52;;;;;;;0.60;0.43;;;9.40;99.90;;;;;;5071363;28;20028;-71
2021/05/18 02:12:17;;;;;;;0.63;0.50;;;9.30;99.90;;;;;;5071340;28;20052;-71
2021/05/18 02:14:47;;;;;;;2.35;0.70;;;9.30;99.90;;;;;;5053288;28;20068;-71
2021/05/18 02:25:10;;;;;;;0.40;0.40;;;9.40;99.90;;;;;;5056821;28;20024;-71
2021/05/18 02:27:36;;;;;;;0.70;0.70;;;9.40;99.90;;;;;;5074628;28;20373;-71
2021/05/18 02:30:04;;;;;;;1.33;0.55;;;9.40;99.90;;;;;;5056890;28;20142;-71
2021/05/18 02:32:31;;;;;;;0.60;0.60;;;9.40;99.90;;;;;;5074457;28;20035;-71
2021/05/18 02:34:57;;;;;;;0.52;0.52;;;9.40;99.90;;;;;;5074816;28;20476;-71
2021/05/18 02:37:24;;;;;;;0.28;0.28;;;9.40;99.90;;;;;;5056430;28;20098;-71
2021/05/18 02:39:49;;;;;;;0.68;0.40;;;9.40;99.90;;;;;;5074484;28;20036;-71
2021/05/18 02:42:16;;;;;;;0.32;0.32;;;9.40;99.90;;;;;;5056613;28;20451;-70
2021/05/18 02:45:05;;;;;;;0.40;0.40;;;9.30;99.90;;;;;;5056648;28;20024;-71
2021/05/18 02:50:15;;;;;;;0.60;0.32;;;9.30;99.90;;;;;;5074337;28;20029;-71
2021/05/18 02:52:42;;;;;;;4.22;0.30;;;9.30;99.90;;;;;;5074377;28;20624;-71
2021/05/18 02:55:12;;;;;;;0.30;0.30;;;9.30;99.90;;;;;;5074352;28;20097;-71
2021/05/18 02:57:38;;;;;;;0.40;0.40;;;9.20;99.90;;;;;;5056256;28;20025;-71
2021/05/18 03:00:15;;;;;;;0.30;0.30;;;9.20;99.90;;;;;;5073964;28;20211;-71
2021/05/18 03:02:40;;;;;;;0.65;0.63;;;9.30;99.90;;;;;;5074246;28;20028;-71
2021/05/18 03:05:08;;;;;;;3.95;0.50;;;9.30;99.90;;;;;;5056294;28;20353;-71
2021/05/18 03:07:33;;;;;;;0.98;0.50;;;9.40;99.90;;;;;;5073960;28;20055;-71
2021/05/18 03:09:59;;;;;;;0.55;0.40;;;9.50;99.90;;;;;;5074002;28;20420;-71
2021/05/18 03:12:27;;;;;;;5.97;0.60;;;9.50;99.90;;;;;;5074036;28;20017;-71
2021/05/18 03:14:53;;;;;;;0.43;0.40;;;9.40;99.90;;;;;;5072705;28;20032;-71
2021/05/18 03:17:18;;;;;;;0.55;0.50;;;9.40;99.90;;;;;;5073813;28;20020;-71
2021/05/18 03:19:44;;;;;;;0.40;0.40;;;9.40;99.90;;;;;;5073960;28;20024;-71
2021/05/18 03:22:10;;;;;;;5.18;0.47;;;9.30;99.90;;;;;;5055993;28;20089;-71
2021/05/18 03:24:41;;;;;;;0.82;0.38;;;9.30;99.90;;;;;;5055790;28;20098;-70
2021/05/18 03:27:07;;;;;;;0.38;0.38;;;9.20;99.90;;;;;;5073647;28;20016;-71
2021/05/18 03:29:34;;;;;;;4.07;0.47;;;9.30;99.90;;;;;;5073479;28;20048;-70
2021/05/18 03:34:46;;;;;;;3.45;0.50;;;9.20;99.90;;;;;;5073706;28;20111;-71
2021/05/18 03:37:17;;;;;;;1.60;0.50;;;9.00;99.90;;;;;;5038776;28;20083;-71
2021/05/18 03:39:45;;;;;;;0.30;0.30;;;9.00;99.90;;;;;;5073521;28;20025;-71
2021/05/18 03:42:18;;;;;;;2.47;1.15;;;9.10;99.90;;;;;;5055397;28;20543;-71
2021/05/18 03:45:01;;;;;;;5.88;0.60;;;9.10;99.90;;;;;;5055536;28;20090;-71
2021/05/18 04:03:56;;;;;;;3.40;0.50;;;9.00;99.90;;;;;;5072986;28;20362;-71
2021/05/18 04:17:01;;;;;;;1.65;0.57;;;9.10;99.90;;;;;;5072611;28;20028;-71
2021/05/18 04:19:32;;;;;;;5.20;0.50;;;9.10;99.90;;;;;;5054936;28;20040;-71
2021/05/18 04:52:08;;;;;;;0.40;0.40;;;9.30;99.90;;;;;;5072243;28;20382;-71
2021/05/18 05:00:00;;;;;;;8.73;0.50;;;9.30;99.90;;;;;;5048135;22;589499;-73
2021/05/18 05:08:05;;;;;;;1.40;0.57;;;9.40;99.90;;;;;;5071892;28;20035;-74
2021/05/18 05:15:40;;;;;;;0.28;0.28;;;9.60;99.90;;;;;;5072095;28;20021;-74
2021/05/18 05:18:05;;;;;;;0.28;0.28;;;9.70;99.90;;;;;;5054207;28;20434;-74
2021/05/18 05:20:32;;;;;;;0.30;0.30;;;9.70;99.90;;;;;;5072067;28;20029;-75
2021/05/18 05:22:58;;;;;;;3.50;0.70;;;9.70;99.90;;;;;;5072165;28;20043;-74
2021/05/18 05:25:25;;;;;;;0.57;0.50;;;9.70;99.90;;;;;;5054019;28;20024;-74
2021/05/18 05:27:51;;;;;;;2.35;0.50;;;9.80;99.90;;;;;;5071952;28;20035;-75
2021/05/18 05:30:17;;;;;;;0.30;0.30;;;9.90;99.90;;;;;;5037860;28;20021;-74
2021/05/18 05:32:44;;;;;;;1.85;0.30;;;10.00;99.90;;;;;;5072277;28;20020;-74
2021/05/18 05:35:10;;;;;;;0.40;0.40;;;9.90;99.90;;;;;;5068869;28;20017;-74
2021/05/18 05:37:36;;;;;;;0.30;0.30;;;9.90;99.90;;;;;;5069941;28;20031;-74
2021/05/18 05:40:03;;;;;;;0.30;0.30;;;9.90;99.90;;;;;;5073956;28;20078;-74
2021/05/18 05:42:29;;;;;;;5.18;1.00;;;9.80;99.90;;;;;;5064942;28;20111;-74
2021/05/18 05:44:55;;;;;;;1.67;0.47;;;9.80;99.90;;;;;;5062815;28;20455;-74
2021/05/18 05:47:21;;;;;;;3.53;0.50;;;9.70;99.90;;;;;;5053677;28;20049;-73
2021/05/18 05:49:47;;;;;;;0.50;0.50;;;9.70;99.90;;;;;;5069535;28;20063;-74
2021/05/18 05:52:20;;;;;;;0.68;0.65;;;9.80;99.90;;;;;;5074097;28;20028;-75
2021/05/18 05:54:46;;;;;;;1.05;0.80;;;9.80;99.90;;;;;;5092397;28;20020;-75
2021/05/18 05:57:12;;;;;;;1.38;0.68;;;9.90;99.90;;;;;;5070519;28;20395;-75
2021/05/18 05:59:38;;;;;;;4.95;0.50;;;9.90;99.90;;;;;;5057365;28;20028;-75
2021/05/18 06:02:04;;;;;;;3.40;0.82;;;9.80;99.90;;;;;;5075634;28;20037;-75
2021/05/18 06:04:31;;;;;;;1.02;0.77;;;9.80;99.90;;;;;;5076103;28;20029;-74
2021/05/18 06:06:58;;;;;;;1.30;0.57;;;9.90;99.90;;;;;;5085911;28;20055;-74
2021/05/18 06:09:24;;;;;;;2.53;0.45;;;9.90;99.90;;;;;;5086330;28;20031;-73
2021/05/18 06:41:59;;;;;;;0.95;0.43;;;10.50;97.90;;;;;;5049395;28;20031;-73
2021/05/18 06:49:57;;;;;;;1.00;0.57;;;10.50;95.50;;;;;;5069616;28;20027;-76
2021/05/18 06:52:22;;;;;;;0.95;0.50;;;10.50;95.70;;;;;;5067191;28;20987;-76
2021/05/18 06:54:48;;;;;;;7.88;0.63;;;10.70;96.10;;;;;;5070373;28;20029;-75
2021/05/18 06:57:14;;;;;;;0.52;0.32;;;10.70;96.80;;;;;;5071954;28;20097;-76
2021/05/18 07:02:25;;;;;;;41.80;2.70;;;10.60;98.80;;;;;;5069715;28;20078;-76
2021/05/18 07:04:53;;;;;;;4.45;0.80;;;10.80;99.90;;;;;;5049193;28;20471;-75
2021/05/18 07:07:21;;;;;;;5.75;0.70;;;11.00;99.90;;;;;;5046747;28;20446;-76
2021/05/18 07:09:47;;;;;;;1.45;0.60;;;10.90;99.40;;;;;;5072857;28;20024;-75
2021/05/18 07:12:13;;;;;;;0.30;0.30;;;10.80;99.90;;;;;;5067388;28;20035;-76
2021/05/18 07:14:39;;;;;;;0.40;0.40;;;10.80;99.90;;;;;;5067209;28;20044;-75
2021/05/18 07:17:04;;;;;;;18.77;1.23;;;10.50;99.90;;;;;;5051098;28;20021;-76
2021/05/18 07:19:30;;;;;;;22.58;2.35;;;10.50;99.90;;;;;;5051384;28;20360;-76
2021/05/18 07:21:56;;;;;;;9.52;1.40;;;10.70;99.90;;;;;;5067927;28;20541;-76
2021/05/18 07:24:27;;;;;;;1.38;0.47;;;10.60;99.90;;;;;;5036507;28;20029;-75
2021/05/18 07:26:53;;;;;;;0.55;0.50;;;10.60;99.90;;;;;;5071482;28;20550;-76
2021/05/18 07:29:19;;;;;;;2.53;0.70;;;10.30;99.90;;;;;;5068288;28;20100;-76
2021/05/18 07:31:45;;;;;;;0.70;0.47;;;10.30;99.90;;;;;;5036097;28;20361;-76
2021/05/18 07:34:11;;;;;;;6.63;0.73;;;10.30;99.90;;;;;;5054707;28;20020;-75
2021/05/18 07:36:37;;;;;;;13.65;0.95;;;10.50;99.90;;;;;;5038230;28;20044;-74
2021/05/18 07:39:03;;;;;;;1.98;0.60;;;10.50;99.90;;;;;;5038657;28;20385;-75
2021/05/18 07:41:31;;;;;;;0.40;0.40;;;10.30;99.90;;;;;;5054827;28;20077;-75
2021/05/18 07:44:05;;;;;;;4.57;0.63;;;10.20;99.90;;;;;;5071925;28;20031;-74
2021/05/18 07:46:31;;;;;;;2.00;0.55;;;10.10;99.90;;;;;;5054764;28;20115;-74
2021/05/18 07:59:30;;;;;;;2.10;1.02;;;10.00;99.90;;;;;;5072075;28;20033;-75
2021/05/18 08:07:25;;;;;;;0.52;0.50;;;10.20;99.90;;;;;;5069179;28;20403;-77
2021/05/18 08:09:59;;;;;;;1.48;0.85;;;10.30;99.90;;;;;;5049706;28;20032;-76
2021/05/18 08:12:25;;;;;;;1.42;0.55;;;10.40;99.90;;;;;;5071943;28;20020;-75
2021/05/18 08:20:25;;;;;;;0.52;0.45;;;10.70;99.90;;;;;;5072006;28;20021;-76
2021/05/18 10:35:09;;;;;;;4.43;0.80;;;14.70;75.30;;;;;;5073025;28;20475;-75
2021/05/18 10:37:43;;;;;;;3.45;0.50;;;14.80;75.60;;;;;;5059922;28;20039;-74
2021/05/18 10:40:34;;;;;;;0.68;0.60;;;15.00;75.80;;;;;;5067936;28;20021;-75
2021/05/18 10:43:04;;;;;;;1.30;0.70;;;14.80;75.20;;;;;;5073273;28;20025;-75
2021/05/18 10:45:52;;;;;;;1.13;0.60;;;14.40;75.90;;;;;;5054973;28;20086;-74
2021/05/18 10:48:40;;;;;;;0.68;0.40;;;14.90;74.30;;;;;;5050212;28;20492;-75
2021/05/18 10:51:44;;;;;;;8.70;0.60;;;15.50;71.90;;;;;;5072889;28;20016;-74
2021/05/18 10:54:20;;;;;;;2.85;0.50;;;15.40;70.60;;;;;;5070116;28;20499;-74
2021/05/18 10:56:56;;;;;;;2.67;0.50;;;15.20;70.00;;;;;;5052344;28;20017;-74
2021/05/18 10:59:26;;;;;;;1.35;0.60;;;15.60;68.50;;;;;;5051518;28;20512;-74
2021/05/18 11:02:07;;;;;;;0.52;0.43;;;15.40;68.20;;;;;;5072790;28;20051;-74
2021/05/18 11:04:36;;;;;;;0.43;0.43;;;15.00;68.60;;;;;;5072829;28;20039;-74
2021/05/18 11:07:04;;;;;;;2.75;0.50;;;14.60;69.70;;;;;;5071483;28;20388;-74
2021/05/18 11:09:30;;;;;;;1.10;0.70;;;14.40;73.40;;;;;;5072534;28;20025;-76
2021/05/18 11:12:11;;;;;;;18.10;0.73;;;14.30;76.10;;;;;;5054544;28;20058;-75
2021/05/18 11:14:50;;;;;;;5.47;1.02;;;13.90;77.30;;;;;;5073830;28;20025;-73
2021/05/18 11:17:27;;;;;;;3.03;1.00;;;13.70;78.10;;;;;;5071061;28;20060;-75
2021/05/18 11:20:08;;;;;;;2.53;0.90;;;13.80;78.90;;;;;;5072441;28;20039;-74
2021/05/18 11:25:58;;;;;;;13.98;1.00;;;13.20;83.00;;;;;;5052186;28;20480;-74
2021/05/18 11:28:27;;;;;;;10.57;1.23;;;12.50;88.20;;;;;;5070491;28;20051;-73
2021/05/18 11:31:03;;;;;;;11.65;0.75;;;12.00;91.00;;;;;;5069876;28;20480;-73
2021/05/18 11:33:31;;;;;;;2.97;0.45;;;11.60;96.90;;;;;;5051484;28;20020;-74
2021/05/18 11:36:03;;;;;;;0.90;0.60;;;11.10;99.90;;;;;;5045766;28;20120;-73
2021/05/18 11:38:30;;;;;;;1.42;0.52;;;10.80;99.90;;;;;;5072852;28;20460;-73
2021/05/18 11:40:56;;;;;;;17.45;2.45;;;10.70;99.90;;;;;;5068503;28;20032;-74
2021/05/18 11:43:35;;;;;;;9.05;2.15;;;10.70;99.90;;;;;;5070196;28;20029;-74
2021/05/18 11:46:11;;;;;;;12.20;1.83;;;10.80;99.90;;;;;;5116633;23;20491;-73
2021/05/18 11:48:54;;;;;;;12.57;1.23;;;11.00;99.90;;;;;;5069368;28;20064;-73
2021/05/18 11:51:20;;;;;;;0.63;0.63;;;11.30;99.90;;;;;;5050631;28;20115;-72
2021/05/18 11:53:51;;;;;;;9.57;1.33;;;11.30;99.90;;;;;;5067141;28;20104;-73
2021/05/18 11:56:29;;;;;;;25.15;1.27;;;11.20;99.90;;;;;;5069344;28;20024;-73
2021/05/18 11:59:18;;;;;;;11.85;1.20;;;11.00;99.90;;;;;;5030929;28;20024;-73
2021/05/18 12:01:48;;;;;;;8.20;1.00;;;11.80;99.90;;;;;;5059515;28;20044;-73
2021/05/18 12:04:19;;;;;;;21.58;1.63;;;12.00;99.90;;;;;;5052450;28;20078;-73
2021/05/18 12:07:04;;;;;;;13.07;1.30;;;12.20;99.90;;;;;;5072422;28;20070;-72
2021/05/18 12:09:33;;;;;;;24.00;1.50;;;12.40;99.90;;;;;;5053537;28;20029;-72
2021/05/18 12:12:10;;;;;;;13.20;0.90;;;12.80;99.90;;;;;;5072084;28;20020;-72
2021/05/18 12:14:42;;;;;;;0.55;0.43;;;12.80;99.90;;;;;;5071860;28;20025;-72
2021/05/18 12:17:08;;;;;;;2.65;0.50;;;12.80;99.90;;;;;;5053159;28;20024;-72
2021/05/18 12:19:37;;;;;;;1.02;0.82;;;12.60;99.90;;;;;;5053722;28;20024;-73
2021/05/18 12:22:03;;;;;;;0.85;0.55;;;12.80;99.90;;;;;;5054094;28;20062;-73
2021/05/18 12:24:29;;;;;;;1.27;0.60;;;13.00;99.90;;;;;;5071568;28;20074;-72
2021/05/18 12:26:57;;;;;;;1.13;0.40;;;12.60;99.90;;;;;;5071200;28;20021;-73
2021/05/18 12:29:49;;;;;;;0.40;0.38;;;12.50;99.90;;;;;;5053849;28;20502;-73
2021/05/18 12:32:19;;;;;;;0.73;0.73;;;12.70;99.90;;;;;;5053369;28;20024;-73
2021/05/18 12:34:47;;;;;;;1.05;0.75;;;12.90;99.90;;;;;;5071744;28;20422;-72
2021/05/18 12:37:14;;;;;;;3.33;0.40;;;13.10;99.90;;;;;;5053460;28;20391;-73
2021/05/18 12:39:44;;;;;;;1.88;0.50;;;12.70;98.50;;;;;;5071653;28;20063;-73
2021/05/18 12:42:13;;;;;;;3.35;1.73;;;12.80;99.90;;;;;;5053283;28;20082;-73
2021/05/18 12:44:52;;;;;;;3.35;0.80;;;13.30;98.60;;;;;;5071375;28;20044;-72
2021/05/18 12:47:29;;;;;;;3.10;0.55;;;13.20;96.70;;;;;;5053113;28;20036;-73
2021/05/18 12:49:56;;;;;;;0.43;0.30;;;13.30;96.30;;;;;;5070679;28;20134;-73
2021/05/18 12:52:22;;;;;;;0.93;0.38;;;13.20;93.90;;;;;;5071257;28;20501;-73
2021/05/18 12:54:57;;;;;;;5.85;0.77;;;13.30;93.20;;;;;;5070921;28;20139;-73
2021/05/18 12:57:27;;;;;;;4.82;0.50;;;12.80;92.50;;;;;;5067078;28;20027;-73
2021/05/18 12:59:56;;;;;;;13.68;1.55;;;13.00;92.20;;;;;;5053016;28;20514;-73
2021/05/18 13:02:32;;;;;;;5.57;1.33;;;13.60;90.80;;;;;;5071747;28;20029;-73
2021/05/18 13:05:07;;;;;;;1.13;0.40;;;13.70;90.50;;;;;;5047615;28;20027;-73
2021/05/18 13:07:33;;;;;;;9.70;0.90;;;13.20;85.40;;;;;;5068292;28;20097;-73
2021/05/18 13:10:07;;;;;;;6.40;1.38;;;13.60;87.90;;;;;;5051076;28;20103;-73
2021/05/18 13:12:33;;;;;;;17.27;2.15;;;14.00;84.40;;;;;;5070762;28;20024;-72
2021/05/18 13:15:00;;;;;;;0.93;0.55;;;14.00;83.50;;;;;;5070893;28;20024;-73
2021/05/18 13:17:28;;;;;;;0.40;0.40;;;14.20;84.10;;;;;;5050221;28;20417;-73
2021/05/18 13:20:01;;;;;;;10.05;0.90;;;14.50;82.50;;;;;;5051879;28;20028;-73
2021/05/18 13:22:30;;;;;;;1.23;0.50;;;14.50;80.30;;;;;;5065097;28;20041;-73
2021/05/18 13:27:56;;;;;;;6.03;1.42;;;14.50;79.10;;;;;;5066192;28;20033;-73
2021/05/18 13:30:24;;;;;;;2.22;0.80;;;14.60;75.50;;;;;;5070422;28;20036;-73
2021/05/18 13:32:51;;;;;;;1.02;0.47;;;14.60;77.10;;;;;;5051955;28;20066;-73
2021/05/18 13:35:18;;;;;;;1.85;0.55;;;14.40;75.30;;;;;;5052540;28;20025;-73
2021/05/18 13:37:44;;;;;;;1.27;0.47;;;14.10;75.70;;;;;;5053056;28;20021;-72
2021/05/18 13:40:12;;;;;;;3.30;0.40;;;14.20;76.60;;;;;;5070493;28;20041;-73
2021/05/18 13:42:39;;;;;;;0.73;0.60;;;14.30;76.10;;;;;;5070633;28;20086;-73
2021/05/18 13:45:07;;;;;;;0.98;0.70;;;13.90;75.80;;;;;;5070693;28;20020;-73
2021/05/18 13:47:33;;;;;;;2.55;0.40;;;13.80;77.00;;;;;;5052114;28;20442;-73
2021/05/18 13:49:58;;;;;;;0.50;0.50;;;13.90;76.20;;;;;;5068818;28;20032;-73
2021/05/18 13:52:24;;;;;;;1.10;0.50;;;13.90;78.40;;;;;;5070023;28;20025;-73
2021/05/18 13:54:51;;;;;;;5.32;1.38;;;14.10;75.70;;;;;;5069331;28;20028;-73
2021/05/18 13:57:17;;;;;;;1.35;0.80;;;14.30;77.50;;;;;;5051749;28;20090;-73
2021/05/18 13:59:43;;;;;;;9.30;1.33;;;14.10;77.60;;;;;;5052364;28;20028;-73
2021/05/18 14:02:09;;;;;;;4.60;0.60;;;14.30;78.30;;;;;;5051523;28;20031;-73
2021/05/18 14:04:35;;;;;;;3.25;0.88;;;14.40;77.20;;;;;;5050453;28;20024;-73
2021/05/18 14:10:00;;;;;;;1.23;0.40;;;14.50;72.80;;;;;;5066792;28;20472;-73
2021/05/18 14:12:26;;;;;;;0.32;0.32;;;14.30;74.60;;;;;;5035239;28;20020;-73
2021/05/18 14:14:52;;;;;;;4.25;0.60;;;14.50;74.20;;;;;;5050310;28;20017;-73
2021/05/18 14:17:18;;;;;;;3.05;0.60;;;14.70;72.40;;;;;;5053324;28;20111;-73
2021/05/18 14:19:44;;;;;;;6.50;0.70;;;14.40;70.60;;;;;;5072562;28;20520;-73
2021/05/18 14:22:09;;;;;;;4.40;0.70;;;14.30;73.50;;;;;;5073984;28;20032;-73
2021/05/18 14:24:40;;;;;;;1.08;0.95;;;14.50;73.80;;;;;;5055981;28;20033;-73
2021/05/18 14:27:09;;;;;;;1.27;0.52;;;14.60;70.90;;;;;;5073301;28;20056;-73
2021/05/18 14:29:35;;;;;;;8.18;1.20;;;14.30;71.10;;;;;;5072706;28;20021;-73
2021/05/18 14:32:01;;;;;;;2.72;1.75;;;14.20;72.30;;;;;;5055100;28;20031;-73
2021/05/18 14:34:27;;;;;;;2.00;0.52;;;14.30;71.60;;;;;;5073963;28;20423;-76
2021/05/18 14:36:53;;;;;;;10.63;1.20;;;14.50;72.30;;;;;;5069853;28;20480;-73
2021/05/18 14:39:24;;;;;;;7.07;1.00;;;14.70;71.80;;;;;;5071708;28;20024;-73
2021/05/18 14:44:34;;;;;;;18.02;1.15;;;15.00;70.90;;;;;;5072646;28;20020;-73
2021/05/18 14:47:09;;;;;;;22.98;2.17;;;15.00;70.30;;;;;;5054340;28;20409;-73
2021/05/18 14:55:09;;;;;;;5.18;0.85;;;14.90;71.00;;;;;;5055200;28;20027;-73
2021/05/18 14:57:35;;;;;;;17.25;2.28;;;14.90;71.10;;;;;;5068927;28;20017;-73
2021/05/18 15:00:00;;;;;;;27.80;4.53;;;14.80;70.10;;;;;;5072199;28;20078;-73
2021/05/18 15:02:26;;;;;;;0.20;0.15;;;15.00;68.00;;;;;;5072229;28;20036;-73
2021/05/18 15:04:52;;;;;;;3.60;0.60;;;14.50;68.20;;;;;;5071666;28;20414;-73
2021/05/18 15:07:18;;;;;;;3.80;0.40;;;14.60;70.30;;;;;;5073293;28;20391;-73
2021/05/18 15:09:43;;;;;;;0.75;0.45;;;14.50;68.80;;;;;;5071646;28;20020;-73
2021/05/18 15:12:09;;;;;;;0.30;0.30;;;14.30;71.00;;;;;;5073113;28;20038;-72
2021/05/18 15:14:36;;;;;;;1.88;0.60;;;14.40;70.20;;;;;;5072874;28;20048;-73
2021/05/18 15:17:03;;;;;;;0.63;0.47;;;14.50;69.80;;;;;;5073347;28;20016;-73
2021/05/18 15:19:30;;;;;;;3.33;0.93;;;14.60;70.40;;;;;;5073188;28;20044;-73
2021/05/18 15:21:58;;;;;;;5.60;0.88;;;14.80;69.10;;;;;;5055091;28;20028;-73
2021/05/18 15:24:25;;;;;;;3.30;1.00;;;14.80;66.90;;;;;;5073259;28;20492;-73
2021/05/18 15:26:51;;;;;;;4.82;1.40;;;14.60;68.30;;;;;;5072765;28;20048;-73
2021/05/18 15:29:17;;;;;;;1.13;0.70;;;14.70;67.40;;;;;;5071635;28;20078;-73
2021/05/18 15:31:43;;;;;;;11.75;1.20;;;14.50;68.00;;;;;;5072514;28;20037;-73
2021/05/18 15:34:09;;;;;;;3.97;0.60;;;14.40;70.30;;;;;;5073108;28;20111;-73
2021/05/18 15:36:37;;;;;;;34.55;1.83;;;14.40;69.50;;;;;;5053071;28;20040;-73
2021/05/18 15:39:03;;;;;;;5.80;1.08;;;14.40;69.60;;;;;;5071382;28;20100;-73
2021/05/18 15:41:32;;;;;;;12.13;1.45;;;14.50;69.80;;;;;;5038528;28;20021;-73
2021/05/18 15:43:59;;;;;;;6.47;1.77;;;14.70;68.00;;;;;;5054674;28;20082;-73
2021/05/18 15:46:25;;;;;;;6.85;2.17;;;14.80;68.60;;;;;;5054766;28;20097;-73
2021/05/18 15:48:51;;;;;;;2.88;2.13;;;14.80;68.50;;;;;;5072244;28;20080;-75
2021/05/18 15:51:17;;;;;;;1.92;0.70;;;14.80;68.30;;;;;;5054418;28;20103;-73
2021/05/18 15:53:42;;;;;;;1.63;0.80;;;14.60;67.70;;;;;;5073112;28;20021;-73
2021/05/18 15:56:08;;;;;;;1.65;0.57;;;14.70;68.50;;;;;;5072245;28;20025;-74
2021/05/18 15:58:34;;;;;;;2.83;0.60;;;14.80;69.70;;;;;;5072569;28;20099;-73
2021/05/18 16:01:00;;;;;;;1.42;0.60;;;14.80;66.70;;;;;;5071254;28;20028;-74
2021/05/18 16:03:26;;;;;;;0.60;0.45;;;14.70;67.40;;;;;;5034008;28;20024;-73
2021/05/18 16:05:53;;;;;;;1.30;0.75;;;14.80;68.00;;;;;;5069701;28;20154;-73
2021/05/18 16:11:02;;;;;;;7.22;1.60;;;15.00;67.60;;;;;;5071629;28;20044;-73
2021/05/18 16:13:29;;;;;;;8.30;1.60;;;15.00;67.30;;;;;;5071920;28;20120;-73
2021/05/18 16:16:04;;;;;;;0.80;0.32;;;14.90;68.40;;;;;;5053944;28;20388;-73
2021/05/18 16:18:30;;;;;;;2.35;0.28;;;14.60;72.70;;;;;;5051954;28;20284;-73
2021/05/18 16:20:56;;;;;;;122.43;45.67;;;14.10;75.30;;;;;;5052087;28;20029;-73
2021/05/18 16:23:22;;;;;;;285.30;101.50;;;13.90;76.90;;;;;;5071376;28;20021;-73
2021/05/18 16:25:48;;;;;;;10.00;3.28;;;13.80;77.60;;;;;;5071383;28;20021;-73
2021/05/18 16:28:13;;;;;;;48.60;26.42;;;13.60;78.60;;;;;;5071240;28;20035;-74
2021/05/18 16:30:39;;;;;;;8.02;2.35;;;13.60;79.00;;;;;;5071752;28;20013;-73
2021/05/18 16:33:05;;;;;;;5.57;1.05;;;13.50;80.00;;;;;;5070034;28;20029;-73
2021/05/18 16:35:32;;;;;;;4.63;1.75;;;13.40;80.90;;;;;;5071383;28;20447;-73
2021/05/18 16:37:58;;;;;;;4.28;1.30;;;13.40;81.60;;;;;;5071433;28;20021;-73
2021/05/18 16:40:24;;;;;;;9.43;1.27;;;13.50;81.40;;;;;;5070437;28;20032;-74
2021/05/18 16:42:50;;;;;;;10.43;1.70;;;13.40;81.60;;;;;;5069450;28;20480;-74
2021/05/18 16:45:16;;;;;;;3.67;0.77;;;13.40;84.70;;;;;;5068900;28;20028;-73
2021/05/18 16:47:41;;;;;;;2.85;0.90;;;13.20;86.90;;;;;;5068235;28;20028;-73
2021/05/18 16:50:09;;;;;;;4.95;0.90;;;13.20;90.00;;;;;;5071042;28;20067;-73
2021/05/18 16:52:36;;;;;;;3.67;2.10;;;13.10;90.50;;;;;;5070815;28;20025;-74
2021/05/18 16:55:05;;;;;;;3.85;1.10;;;12.90;91.80;;;;;;5070902;28;20020;-73
2021/05/18 16:57:31;;;;;;;3.47;1.05;;;12.80;93.60;;;;;;5070549;28;20192;-74
2021/05/18 16:59:56;;;;;;;3.70;0.57;;;12.70;96.60;;;;;;5053123;28;20357;-73
2021/05/18 17:02:22;;;;;;;2.28;1.10;;;12.60;99.90;;;;;;5070675;28;20034;-74
2021/05/18 17:04:49;;;;;;;4.38;1.23;;;12.60;99.90;;;;;;5071205;28;20504;-73
2021/05/18 17:07:15;;;;;;;2.50;1.25;;;12.50;99.30;;;;;;5070417;28;20491;-73
2021/05/18 17:09:41;;;;;;;10.70;2.40;;;12.60;99.90;;;;;;5066225;28;20024;-73
2021/05/18 17:12:07;;;;;;;6.15;1.27;;;12.60;99.90;;;;;;5071151;28;20032;-73
2021/05/18 17:14:33;;;;;;;2.70;1.20;;;12.70;99.90;;;;;;5036070;28;20121;-73
2021/05/18 17:17:00;;;;;;;3.50;1.25;;;12.80;99.90;;;;;;5070979;28;20044;-73
2021/05/18 17:19:26;;;;;;;4.53;1.55;;;12.80;99.90;;;;;;5052715;28;20102;-73
2021/05/18 17:21:51;;;;;;;7.00;1.80;;;12.50;99.90;;;;;;5070833;28;20060;-73
2021/05/18 17:24:17;;;;;;;4.78;1.30;;;12.50;99.90;;;;;;5070183;28;20437;-73
2021/05/18 17:26:43;;;;;;;1.95;1.20;;;12.60;99.90;;;;;;5070657;28;20082;-73
2021/05/18 17:29:11;;;;;;;3.13;1.50;;;12.20;99.90;;;;;;5052952;28;20387;-73
2021/05/18 17:31:36;;;;;;;1.67;1.35;;;11.90;99.90;;;;;;5070481;28;20460;-73
2021/05/18 17:34:03;;;;;;;1.13;0.75;;;11.70;99.90;;;;;;5068632;28;20074;-73
2021/05/18 17:36:29;;;;;;;2.40;0.93;;;11.50;99.90;;;;;;5068610;28;20082;-73
2021/05/18 17:38:55;;;;;;;0.68;0.60;;;11.50;99.90;;;;;;5071015;28;20024;-73
2021/05/18 17:41:22;;;;;;;3.22;1.05;;;11.60;99.90;;;;;;5069264;28;20036;-73
2021/05/18 17:43:49;;;;;;;1.40;0.60;;;11.90;99.90;;;;;;5052698;28;20025;-73
2021/05/18 17:46:16;;;;;;;4.57;1.65;;;11.70;99.90;;;;;;5071508;28;20029;-73
2021/05/18 17:48:43;;;;;;;9.48;3.63;;;11.60;99.90;;;;;;5071650;28;20029;-73
2021/05/18 17:51:08;;;;;;;3.38;2.35;;;11.60;99.90;;;;;;5071096;28;20012;-73
2021/05/18 17:53:34;;;;;;;1.85;1.35;;;11.70;99.90;;;;;;5089554;22;20048;-75
2021/05/18 17:56:00;;;;;;;4.28;1.02;;;11.70;99.90;;;;;;5075635;28;20021;-75
2021/05/18 17:58:26;;;;;;;8.48;1.23;;;11.80;99.90;;;;;;5075571;28;20021;-75
2021/05/18 18:00:52;;;;;;;2.85;0.80;;;11.80;99.90;;;;;;5075749;28;20387;-75
2021/05/18 18:03:19;;;;;;;1.20;0.90;;;11.90;99.90;;;;;;5073759;28;20112;-73